หน้าหลัก
METAR-TAF:

METAR-TAF

ท่าอากาศยาน :

ยาคุตสค์, รัสเซีย

ละติจูด: 62-01N, ลองจิจูด: 129-43E, ความสูง: 103 ม.

การสังเกตสภาพอากาศปัจจุบัน

รายงานได้ทำขึ้นเมื่อ 15 นาทีที่แล้ว ณ เวลา 07:30 UTC
ลม 4 นอตจากเหนือ/ตะวันออกเฉียงเหนือ
อุณหภูมิ -29°C
ความชื้น 68%
ความกดอากาศ 1032 hPa
ทัศนวิสัย 10 กม. หรือมากกว่า
ไม่มีเมฆต่ำกว่า 1,500 ม. และไม่มีเมฆคิวมูโลนิมบัส

METAR: UEEE 250730Z 03002MPS CAVOK M29/M33 Q1032 R23/490153 NOSIG RMK QFE765

เวลา: 16:45 (07:45 UTC)

การพยากรณ์

รายงานได้ทำขึ้นเมื่อ 2 ชั่วโมงและ 45 นาทีที่แล้ว ณ เวลา 05:00 UTC
การพยากรณ์มีผลตั้งแต่วันที่ 25 ณ เวลา 06 UTC จนถึงวันที่ 26 ณ เวลา 12 UTC
ลม 2 นอตจากทิศทางซึ่งแปรผันได้
ทัศนวิสัย 10 กม. หรือมากกว่า
ไม่มีเมฆต่ำกว่า 1,500 ม. และไม่มีเมฆคิวมูโลนิมบัส
ชั่วคราว
ตั้งแต่วันที่ 25 ณ เวลา 12 UTC จนถึงวันที่ 25 ณ เวลา 18 UTC
ทัศนวิสัย: 2100 ม.
หมอกน้ำค้าง
ชั่วคราว
ตั้งแต่วันที่ 25 ณ เวลา 18 UTC จนถึงวันที่ 26 ณ เวลา 02 UTC
ทัศนวิสัย: 0300 ม.
ที่ความสูง 300 ฟุต
หมอก,

TAF: UEEE 250500Z 2506/2612 VRB01MPS CAVOK TEMPO 2512/2518 2100 BR NSC TEMPO 2518/2602 0300 FG VV003

สังเกตการณ์สภาพอากาศและพยากรณ์อากาศของสนามบินมากกว่า 4000 แห่ง (รายงาน METAR และ TAF).

สถานีที่ดูได้จะแสดงไว้ด้วยจุดสีเหลืองและสีแดงบนแผนที่.

เลื่อนเมาส์ไปเหนือจุดเพื่อดูชื่อสถานี.

แล้วคลิกเพื่อดูสังเกตการณ์และการพยากรณ์สภาพอากาศ.

ในการเปลี่ยนแผนที่: คลิกที่ปุ่มสีเขียวที่มีกากบาทสีดำเพื่อซูมเข้า; ที่ปุ่มสีเขียวที่มีขีดเพื่อซูมออก; หรือที่ลูกศรสีเขียวเพื่อไปยังแผนที่ที่อยู่ติดกัน.


METAR-TAF: